sensor_id;sensor_type;location;lat;lon;timestamp;noise_LAeq;noise_LA_min;noise_LA_max;noise_LA01;noise_LA95
68599;Laerm;18038;50.166;18.908;2022-11-23T00:02:52;34.35;32.68;42.30;;
68599;Laerm;18038;50.166;18.908;2022-11-23T00:06:01;34.02;32.76;35.21;;
68599;Laerm;18038;50.166;18.908;2022-11-23T00:09:10;34.00;32.94;35.18;;
68599;Laerm;18038;50.166;18.908;2022-11-23T00:12:16;34.45;32.72;43.00;;
68599;Laerm;18038;50.166;18.908;2022-11-23T00:15:23;34.04;32.94;35.06;;
68599;Laerm;18038;50.166;18.908;2022-11-23T00:18:31;34.00;32.61;35.06;;
68599;Laerm;18038;50.166;18.908;2022-11-23T00:21:38;34.17;33.03;36.54;;
68599;Laerm;18038;50.166;18.908;2022-11-23T00:24:44;34.17;32.86;39.38;;
68599;Laerm;18038;50.166;18.908;2022-11-23T00:27:51;34.27;32.90;40.92;;
68599;Laerm;18038;50.166;18.908;2022-11-23T00:30:57;33.96;32.85;35.01;;
68599;Laerm;18038;50.166;18.908;2022-11-23T00:34:07;33.95;32.69;35.13;;
68599;Laerm;18038;50.166;18.908;2022-11-23T00:37:15;34.06;32.85;35.22;;
68599;Laerm;18038;50.166;18.908;2022-11-23T00:40:21;33.96;32.46;35.10;;
68599;Laerm;18038;50.166;18.908;2022-11-23T00:43:28;33.96;32.85;35.26;;
68599;Laerm;18038;50.166;18.908;2022-11-23T00:46:35;34.09;32.77;40.39;;
68599;Laerm;18038;50.166;18.908;2022-11-23T00:49:44;33.95;32.78;35.14;;
68599;Laerm;18038;50.166;18.908;2022-11-23T00:52:53;34.06;32.92;35.69;;
68599;Laerm;18038;50.166;18.908;2022-11-23T00:55:59;33.92;32.75;34.96;;
68599;Laerm;18038;50.166;18.908;2022-11-23T00:59:06;33.91;32.81;35.39;;
68599;Laerm;18038;50.166;18.908;2022-11-23T01:02:13;34.16;32.67;41.57;;
68599;Laerm;18038;50.166;18.908;2022-11-23T01:05:22;33.87;32.84;35.18;;
68599;Laerm;18038;50.166;18.908;2022-11-23T01:08:28;33.84;32.73;35.04;;
68599;Laerm;18038;50.166;18.908;2022-11-23T01:11:35;34.24;32.58;42.89;;
68599;Laerm;18038;50.166;18.908;2022-11-23T01:14:41;34.75;32.77;43.48;;
68599;Laerm;18038;50.166;18.908;2022-11-23T01:17:47;34.34;32.58;43.14;;
68599;Laerm;18038;50.166;18.908;2022-11-23T01:20:56;33.84;32.56;35.07;;
68599;Laerm;18038;50.166;18.908;2022-11-23T01:24:11;34.54;32.70;44.74;;
68599;Laerm;18038;50.166;18.908;2022-11-23T01:27:17;34.42;32.52;45.73;;
68599;Laerm;18038;50.166;18.908;2022-11-23T01:30:26;33.84;32.72;35.33;;
68599;Laerm;18038;50.166;18.908;2022-11-23T01:33:32;33.89;32.78;35.12;;
68599;Laerm;18038;50.166;18.908;2022-11-23T01:36:43;34.23;32.59;41.98;;
68599;Laerm;18038;50.166;18.908;2022-11-23T01:39:49;33.85;32.72;34.91;;
68599;Laerm;18038;50.166;18.908;2022-11-23T01:42:59;34.26;32.68;42.94;;
68599;Laerm;18038;50.166;18.908;2022-11-23T01:46:06;33.81;32.78;35.10;;
68599;Laerm;18038;50.166;18.908;2022-11-23T01:49:15;33.83;32.63;35.02;;
68599;Laerm;18038;50.166;18.908;2022-11-23T01:52:25;33.84;32.66;34.82;;
68599;Laerm;18038;50.166;18.908;2022-11-23T01:55:34;34.38;32.68;43.61;;
68599;Laerm;18038;50.166;18.908;2022-11-23T01:58:48;33.83;32.58;36.32;;
68599;Laerm;18038;50.166;18.908;2022-11-23T02:01:57;33.85;32.73;36.91;;
68599;Laerm;18038;50.166;18.908;2022-11-23T02:05:05;34.10;32.45;40.52;;
68599;Laerm;18038;50.166;18.908;2022-11-23T02:08:17;34.22;32.73;42.06;;
68599;Laerm;18038;50.166;18.908;2022-11-23T02:11:24;33.84;32.54;35.22;;
68599;Laerm;18038;50.166;18.908;2022-11-23T02:14:31;34.44;32.64;41.99;;
68599;Laerm;18038;50.166;18.908;2022-11-23T02:17:38;33.85;32.74;38.72;;
68599;Laerm;18038;50.166;18.908;2022-11-23T02:20:45;33.82;32.72;34.86;;
68599;Laerm;18038;50.166;18.908;2022-11-23T02:24:03;33.82;32.67;36.45;;
68599;Laerm;18038;50.166;18.908;2022-11-23T02:27:19;33.89;32.67;41.55;;
68599;Laerm;18038;50.166;18.908;2022-11-23T02:30:30;34.35;32.73;43.60;;
68599;Laerm;18038;50.166;18.908;2022-11-23T02:33:37;34.82;32.87;45.76;;
68599;Laerm;18038;50.166;18.908;2022-11-23T02:36:47;35.21;32.76;50.26;;
68599;Laerm;18038;50.166;18.908;2022-11-23T02:39:59;33.92;32.68;35.60;;
68599;Laerm;18038;50.166;18.908;2022-11-23T02:43:12;34.98;32.88;46.40;;
68599;Laerm;18038;50.166;18.908;2022-11-23T02:46:33;34.43;32.56;44.83;;
68599;Laerm;18038;50.166;18.908;2022-11-23T02:49:41;33.84;32.44;34.99;;
68599;Laerm;18038;50.166;18.908;2022-11-23T02:52:48;35.21;32.54;49.63;;
68599;Laerm;18038;50.166;18.908;2022-11-23T02:55:54;34.52;32.80;44.90;;
68599;Laerm;18038;50.166;18.908;2022-11-23T02:59:03;34.46;32.87;44.11;;
68599;Laerm;18038;50.166;18.908;2022-11-23T03:02:10;34.89;32.86;45.60;;
68599;Laerm;18038;50.166;18.908;2022-11-23T03:05:17;35.54;32.78;46.94;;
68599;Laerm;18038;50.166;18.908;2022-11-23T03:08:26;34.03;32.75;37.05;;
68599;Laerm;18038;50.166;18.908;2022-11-23T03:11:35;35.22;32.83;46.15;;
68599;Laerm;18038;50.166;18.908;2022-11-23T03:14:43;34.83;32.78;44.28;;
68599;Laerm;18038;50.166;18.908;2022-11-23T03:17:52;34.33;32.72;43.11;;
68599;Laerm;18038;50.166;18.908;2022-11-23T03:21:02;35.84;32.80;47.64;;
68599;Laerm;18038;50.166;18.908;2022-11-23T03:24:12;34.99;32.76;47.57;;
68599;Laerm;18038;50.166;18.908;2022-11-23T03:27:20;34.39;32.59;43.01;;
68599;Laerm;18038;50.166;18.908;2022-11-23T03:30:29;35.18;32.93;43.35;;
68599;Laerm;18038;50.166;18.908;2022-11-23T03:33:37;34.31;32.66;42.25;;
68599;Laerm;18038;50.166;18.908;2022-11-23T03:36:44;34.63;32.63;43.27;;
68599;Laerm;18038;50.166;18.908;2022-11-23T03:39:50;36.19;32.73;47.64;;
68599;Laerm;18038;50.166;18.908;2022-11-23T03:42:57;33.89;32.73;36.48;;
68599;Laerm;18038;50.166;18.908;2022-11-23T03:46:06;34.90;32.76;44.12;;
68599;Laerm;18038;50.166;18.908;2022-11-23T03:49:13;35.16;32.88;44.28;;
68599;Laerm;18038;50.166;18.908;2022-11-23T03:52:19;34.49;32.70;44.10;;
68599;Laerm;18038;50.166;18.908;2022-11-23T03:55:26;36.37;32.89;45.77;;
68599;Laerm;18038;50.166;18.908;2022-11-23T03:58:33;36.80;32.51;47.71;;
68599;Laerm;18038;50.166;18.908;2022-11-23T04:01:46;35.53;32.87;45.79;;
68599;Laerm;18038;50.166;18.908;2022-11-23T04:04:57;35.70;32.75;44.91;;
68599;Laerm;18038;50.166;18.908;2022-11-23T04:08:24;36.38;32.80;45.37;;
68599;Laerm;18038;50.166;18.908;2022-11-23T04:11:31;36.58;32.99;47.43;;
68599;Laerm;18038;50.166;18.908;2022-11-23T04:14:38;35.37;32.78;46.46;;
68599;Laerm;18038;50.166;18.908;2022-11-23T04:17:47;37.62;33.04;50.13;;
68599;Laerm;18038;50.166;18.908;2022-11-23T04:20:54;35.89;32.83;44.21;;
68599;Laerm;18038;50.166;18.908;2022-11-23T04:24:00;37.81;32.97;45.35;;
68599;Laerm;18038;50.166;18.908;2022-11-23T04:27:10;37.24;32.84;47.27;;
68599;Laerm;18038;50.166;18.908;2022-11-23T04:30:17;37.30;32.82;46.76;;
68599;Laerm;18038;50.166;18.908;2022-11-23T04:33:27;36.48;32.95;47.80;;
68599;Laerm;18038;50.166;18.908;2022-11-23T04:36:34;37.77;33.22;47.96;;
68599;Laerm;18038;50.166;18.908;2022-11-23T04:39:43;37.91;33.07;49.34;;
68599;Laerm;18038;50.166;18.908;2022-11-23T04:42:56;36.69;32.95;45.40;;
68599;Laerm;18038;50.166;18.908;2022-11-23T04:46:09;37.64;32.93;48.59;;
68599;Laerm;18038;50.166;18.908;2022-11-23T04:49:18;39.15;32.94;49.31;;
68599;Laerm;18038;50.166;18.908;2022-11-23T04:52:25;37.10;32.77;47.31;;
68599;Laerm;18038;50.166;18.908;2022-11-23T04:55:32;37.81;33.04;46.22;;
68599;Laerm;18038;50.166;18.908;2022-11-23T04:58:40;37.89;32.99;48.04;;
68599;Laerm;18038;50.166;18.908;2022-11-23T05:01:46;36.88;32.93;46.42;;
68599;Laerm;18038;50.166;18.908;2022-11-23T05:05:16;36.30;32.97;46.06;;
68599;Laerm;18038;50.166;18.908;2022-11-23T05:08:22;37.44;32.88;46.54;;
68599;Laerm;18038;50.166;18.908;2022-11-23T05:11:37;36.67;32.96;43.24;;
68599;Laerm;18038;50.166;18.908;2022-11-23T05:14:45;37.43;33.62;43.95;;
68599;Laerm;18038;50.166;18.908;2022-11-23T05:18:00;36.91;33.19;44.46;;
68599;Laerm;18038;50.166;18.908;2022-11-23T05:21:12;38.76;33.31;52.79;;
68599;Laerm;18038;50.166;18.908;2022-11-23T05:24:19;37.11;33.10;47.48;;
68599;Laerm;18038;50.166;18.908;2022-11-23T05:27:41;38.02;33.43;48.51;;
68599;Laerm;18038;50.166;18.908;2022-11-23T05:30:49;37.44;33.21;52.69;;
68599;Laerm;18038;50.166;18.908;2022-11-23T05:33:55;37.48;33.05;43.53;;
68599;Laerm;18038;50.166;18.908;2022-11-23T05:37:15;38.45;33.29;48.55;;
68599;Laerm;18038;50.166;18.908;2022-11-23T05:40:43;38.61;33.68;44.76;;
68599;Laerm;18038;50.166;18.908;2022-11-23T05:43:51;39.33;33.61;52.37;;
68599;Laerm;18038;50.166;18.908;2022-11-23T05:47:01;38.84;33.65;49.01;;
68599;Laerm;18038;50.166;18.908;2022-11-23T05:50:10;38.75;33.47;48.19;;
68599;Laerm;18038;50.166;18.908;2022-11-23T05:53:24;39.38;33.55;60.13;;
68599;Laerm;18038;50.166;18.908;2022-11-23T05:56:38;39.48;33.91;46.87;;
68599;Laerm;18038;50.166;18.908;2022-11-23T05:59:57;38.41;33.44;45.63;;
68599;Laerm;18038;50.166;18.908;2022-11-23T06:03:15;39.62;33.82;50.83;;
68599;Laerm;18038;50.166;18.908;2022-11-23T06:06:21;38.63;33.24;56.98;;
68599;Laerm;18038;50.166;18.908;2022-11-23T06:09:32;38.23;33.17;45.82;;
68599;Laerm;18038;50.166;18.908;2022-11-23T06:12:42;38.60;33.70;45.14;;
68599;Laerm;18038;50.166;18.908;2022-11-23T06:15:53;39.48;33.24;54.54;;
68599;Laerm;18038;50.166;18.908;2022-11-23T06:19:06;37.38;33.36;49.19;;
68599;Laerm;18038;50.166;18.908;2022-11-23T06:22:18;39.68;34.00;48.23;;
68599;Laerm;18038;50.166;18.908;2022-11-23T06:25:33;39.74;33.64;49.64;;
68599;Laerm;18038;50.166;18.908;2022-11-23T06:29:00;39.28;33.62;47.30;;
68599;Laerm;18038;50.166;18.908;2022-11-23T06:32:06;38.94;33.49;45.86;;
68599;Laerm;18038;50.166;18.908;2022-11-23T06:35:13;38.37;33.76;45.71;;
68599;Laerm;18038;50.166;18.908;2022-11-23T06:38:22;39.49;33.40;46.83;;
68599;Laerm;18038;50.166;18.908;2022-11-23T06:41:47;40.29;34.07;47.18;;
68599;Laerm;18038;50.166;18.908;2022-11-23T06:44:53;41.79;35.15;50.87;;
68599;Laerm;18038;50.166;18.908;2022-11-23T06:48:00;40.57;35.15;49.06;;
68599;Laerm;18038;50.166;18.908;2022-11-23T06:51:10;39.21;33.90;45.38;;
68599;Laerm;18038;50.166;18.908;2022-11-23T06:54:16;39.46;34.35;47.15;;
68599;Laerm;18038;50.166;18.908;2022-11-23T06:57:31;39.58;34.27;46.46;;
68599;Laerm;18038;50.166;18.908;2022-11-23T07:00:39;40.28;34.60;47.14;;
68599;Laerm;18038;50.166;18.908;2022-11-23T07:03:46;40.19;34.65;56.34;;
68599;Laerm;18038;50.166;18.908;2022-11-23T07:07:02;40.47;34.09;47.50;;
68599;Laerm;18038;50.166;18.908;2022-11-23T07:10:16;39.36;34.22;49.84;;
68599;Laerm;18038;50.166;18.908;2022-11-23T07:13:33;40.26;34.06;49.34;;
68599;Laerm;18038;50.166;18.908;2022-11-23T07:16:39;39.52;34.15;49.58;;
68599;Laerm;18038;50.166;18.908;2022-11-23T07:20:00;39.08;33.57;54.21;;
68599;Laerm;18038;50.166;18.908;2022-11-23T07:23:21;39.92;33.94;54.01;;
68599;Laerm;18038;50.166;18.908;2022-11-23T07:26:42;39.16;33.80;47.82;;
68599;Laerm;18038;50.166;18.908;2022-11-23T07:30:10;39.90;33.70;51.97;;
68599;Laerm;18038;50.166;18.908;2022-11-23T07:33:31;38.92;33.82;47.16;;
68599;Laerm;18038;50.166;18.908;2022-11-23T07:36:52;40.43;33.84;63.88;;
68599;Laerm;18038;50.166;18.908;2022-11-23T07:40:20;38.38;34.11;44.73;;
68599;Laerm;18038;50.166;18.908;2022-11-23T07:43:41;39.16;33.55;48.67;;
68599;Laerm;18038;50.166;18.908;2022-11-23T07:47:06;38.99;33.73;45.26;;
68599;Laerm;18038;50.166;18.908;2022-11-23T07:50:28;39.07;34.02;45.72;;
68599;Laerm;18038;50.166;18.908;2022-11-23T07:53:35;39.45;34.58;46.47;;
68599;Laerm;18038;50.166;18.908;2022-11-23T07:56:41;38.72;33.91;45.55;;
68599;Laerm;18038;50.166;18.908;2022-11-23T07:59:47;38.53;33.95;46.07;;
68599;Laerm;18038;50.166;18.908;2022-11-23T08:02:57;38.11;34.01;49.21;;
68599;Laerm;18038;50.166;18.908;2022-11-23T08:06:24;39.18;33.71;51.47;;
68599;Laerm;18038;50.166;18.908;2022-11-23T08:09:30;38.47;34.05;51.07;;
68599;Laerm;18038;50.166;18.908;2022-11-23T08:12:36;38.96;33.74;54.20;;
68599;Laerm;18038;50.166;18.908;2022-11-23T08:15:42;39.13;33.64;48.57;;
68599;Laerm;18038;50.166;18.908;2022-11-23T08:18:59;39.72;33.95;49.75;;
68599;Laerm;18038;50.166;18.908;2022-11-23T08:22:05;40.48;33.92;53.35;;
68599;Laerm;18038;50.166;18.908;2022-11-23T08:25:18;38.44;33.76;47.79;;
68599;Laerm;18038;50.166;18.908;2022-11-23T08:28:24;39.43;34.10;46.30;;
68599;Laerm;18038;50.166;18.908;2022-11-23T08:31:31;39.81;33.82;48.13;;
68599;Laerm;18038;50.166;18.908;2022-11-23T08:34:41;38.88;33.82;44.55;;
68599;Laerm;18038;50.166;18.908;2022-11-23T08:37:49;39.12;33.84;46.63;;
68599;Laerm;18038;50.166;18.908;2022-11-23T08:40:57;39.36;33.80;46.61;;
68599;Laerm;18038;50.166;18.908;2022-11-23T08:44:05;39.05;33.77;50.16;;
68599;Laerm;18038;50.166;18.908;2022-11-23T08:47:14;39.41;33.83;48.28;;
68599;Laerm;18038;50.166;18.908;2022-11-23T08:50:24;38.43;34.12;47.50;;
68599;Laerm;18038;50.166;18.908;2022-11-23T08:53:32;38.00;33.46;53.03;;
68599;Laerm;18038;50.166;18.908;2022-11-23T08:56:39;38.15;33.28;45.86;;
68599;Laerm;18038;50.166;18.908;2022-11-23T08:59:45;38.28;33.78;44.64;;
68599;Laerm;18038;50.166;18.908;2022-11-23T09:02:52;38.36;33.47;45.88;;
68599;Laerm;18038;50.166;18.908;2022-11-23T09:06:03;37.26;33.49;45.35;;
68599;Laerm;18038;50.166;18.908;2022-11-23T09:09:10;39.00;33.48;46.91;;
68599;Laerm;18038;50.166;18.908;2022-11-23T09:12:16;37.67;33.54;46.73;;
68599;Laerm;18038;50.166;18.908;2022-11-23T09:15:23;37.92;33.93;48.03;;
68599;Laerm;18038;50.166;18.908;2022-11-23T09:18:29;38.71;33.67;48.31;;
68599;Laerm;18038;50.166;18.908;2022-11-23T09:21:40;38.89;33.72;46.52;;
68599;Laerm;18038;50.166;18.908;2022-11-23T09:24:46;39.13;33.92;46.49;;
68599;Laerm;18038;50.166;18.908;2022-11-23T09:27:57;39.57;34.00;52.11;;
68599;Laerm;18038;50.166;18.908;2022-11-23T09:31:04;38.97;33.67;47.72;;
68599;Laerm;18038;50.166;18.908;2022-11-23T09:34:12;39.20;33.94;49.39;;
68599;Laerm;18038;50.166;18.908;2022-11-23T09:37:21;38.15;33.27;46.55;;
68599;Laerm;18038;50.166;18.908;2022-11-23T09:40:33;38.47;33.86;48.73;;
68599;Laerm;18038;50.166;18.908;2022-11-23T09:43:57;38.59;33.91;52.99;;
68599;Laerm;18038;50.166;18.908;2022-11-23T09:47:37;38.64;33.26;47.69;;
68599;Laerm;18038;50.166;18.908;2022-11-23T09:50:53;40.13;34.37;51.83;;
68599;Laerm;18038;50.166;18.908;2022-11-23T09:54:21;39.35;33.87;47.60;;
68599;Laerm;18038;50.166;18.908;2022-11-23T09:57:33;41.65;34.39;52.69;;
68599;Laerm;18038;50.166;18.908;2022-11-23T10:00:47;38.80;33.83;47.95;;
68599;Laerm;18038;50.166;18.908;2022-11-23T10:03:57;39.07;33.86;51.00;;
68599;Laerm;18038;50.166;18.908;2022-11-23T10:07:26;39.12;33.70;52.36;;
68599;Laerm;18038;50.166;18.908;2022-11-23T10:10:44;38.79;33.72;47.51;;
68599;Laerm;18038;50.166;18.908;2022-11-23T10:14:21;38.46;33.97;48.70;;
68599;Laerm;18038;50.166;18.908;2022-11-23T10:17:56;38.15;33.70;45.58;;
68599;Laerm;18038;50.166;18.908;2022-11-23T10:21:21;38.71;33.92;48.80;;
68599;Laerm;18038;50.166;18.908;2022-11-23T10:24:39;40.03;34.04;48.20;;
68599;Laerm;18038;50.166;18.908;2022-11-23T10:27:57;40.21;34.33;50.61;;
68599;Laerm;18038;50.166;18.908;2022-11-23T10:31:15;39.67;34.04;50.33;;
68599;Laerm;18038;50.166;18.908;2022-11-23T10:34:43;38.81;34.07;45.74;;
68599;Laerm;18038;50.166;18.908;2022-11-23T10:37:51;39.13;33.74;47.94;;
68599;Laerm;18038;50.166;18.908;2022-11-23T10:41:10;38.64;33.82;50.85;;
68599;Laerm;18038;50.166;18.908;2022-11-23T10:44:30;39.78;33.81;48.70;;
68599;Laerm;18038;50.166;18.908;2022-11-23T10:47:47;40.85;33.76;52.33;;
68599;Laerm;18038;50.166;18.908;2022-11-23T10:51:15;40.05;33.73;55.52;;
68599;Laerm;18038;50.166;18.908;2022-11-23T10:54:30;39.80;33.83;47.17;;
68599;Laerm;18038;50.166;18.908;2022-11-23T10:57:43;38.44;34.02;50.23;;
68599;Laerm;18038;50.166;18.908;2022-11-23T11:00:59;38.79;33.69;47.45;;
68599;Laerm;18038;50.166;18.908;2022-11-23T11:04:22;41.68;35.79;50.04;;
68599;Laerm;18038;50.166;18.908;2022-11-23T11:07:30;39.42;33.70;45.61;;
68599;Laerm;18038;50.166;18.908;2022-11-23T11:10:43;38.86;33.95;48.85;;
68599;Laerm;18038;50.166;18.908;2022-11-23T11:14:04;39.18;33.61;51.21;;
68599;Laerm;18038;50.166;18.908;2022-11-23T11:17:26;38.93;33.50;55.27;;
68599;Laerm;18038;50.166;18.908;2022-11-23T11:20:34;38.50;33.63;49.33;;
68599;Laerm;18038;50.166;18.908;2022-11-23T11:23:41;37.82;33.52;50.54;;
68599;Laerm;18038;50.166;18.908;2022-11-23T11:26:59;38.57;33.43;47.28;;
68599;Laerm;18038;50.166;18.908;2022-11-23T11:30:20;38.16;33.48;47.44;;
68599;Laerm;18038;50.166;18.908;2022-11-23T11:33:43;38.97;33.57;48.73;;
68599;Laerm;18038;50.166;18.908;2022-11-23T11:37:02;38.63;33.45;46.66;;
68599;Laerm;18038;50.166;18.908;2022-11-23T11:40:22;39.84;34.36;46.75;;
68599;Laerm;18038;50.166;18.908;2022-11-23T11:43:37;39.78;34.39;49.35;;
68599;Laerm;18038;50.166;18.908;2022-11-23T11:46:55;39.08;33.39;52.64;;
68599;Laerm;18038;50.166;18.908;2022-11-23T11:50:21;37.41;33.65;48.57;;
68599;Laerm;18038;50.166;18.908;2022-11-23T11:53:45;38.62;33.69;45.23;;
68599;Laerm;18038;50.166;18.908;2022-11-23T11:57:02;38.99;33.85;49.29;;
68599;Laerm;18038;50.166;18.908;2022-11-23T12:00:16;39.54;34.18;53.82;;
68599;Laerm;18038;50.166;18.908;2022-11-23T12:03:39;38.59;33.59;46.98;;
68599;Laerm;18038;50.166;18.908;2022-11-23T12:07:02;39.25;33.73;55.72;;
68599;Laerm;18038;50.166;18.908;2022-11-23T12:10:17;39.38;33.57;47.96;;
68599;Laerm;18038;50.166;18.908;2022-11-23T12:13:29;38.96;33.97;50.37;;
68599;Laerm;18038;50.166;18.908;2022-11-23T12:16:54;39.44;33.74;50.33;;
68599;Laerm;18038;50.166;18.908;2022-11-23T12:20:38;38.35;33.52;47.65;;
68599;Laerm;18038;50.166;18.908;2022-11-23T12:24:06;39.11;33.55;52.41;;
68599;Laerm;18038;50.166;18.908;2022-11-23T12:27:35;39.39;33.94;51.44;;
68599;Laerm;18038;50.166;18.908;2022-11-23T12:31:04;39.65;33.43;52.62;;
68599;Laerm;18038;50.166;18.908;2022-11-23T12:34:42;39.40;33.82;48.39;;
68599;Laerm;18038;50.166;18.908;2022-11-23T12:38:11;38.55;33.53;47.47;;
68599;Laerm;18038;50.166;18.908;2022-11-23T12:41:38;37.99;33.48;55.69;;
68599;Laerm;18038;50.166;18.908;2022-11-23T12:45:12;39.28;33.60;54.22;;
68599;Laerm;18038;50.166;18.908;2022-11-23T12:48:40;39.33;33.52;47.66;;
68599;Laerm;18038;50.166;18.908;2022-11-23T12:52:04;38.37;33.30;47.39;;
68599;Laerm;18038;50.166;18.908;2022-11-23T12:55:27;39.19;33.65;46.57;;
68599;Laerm;18038;50.166;18.908;2022-11-23T12:58:44;39.58;33.31;52.58;;
68599;Laerm;18038;50.166;18.908;2022-11-23T13:02:01;39.38;33.35;46.53;;
68599;Laerm;18038;50.166;18.908;2022-11-23T13:06:06;40.35;34.02;49.98;;
68599;Laerm;18038;50.166;18.908;2022-11-23T13:09:40;39.94;33.72;48.88;;
68599;Laerm;18038;50.166;18.908;2022-11-23T13:13:33;39.04;33.65;47.18;;
68599;Laerm;18038;50.166;18.908;2022-11-23T13:17:15;38.28;33.39;46.39;;
68599;Laerm;18038;50.166;18.908;2022-11-23T13:21:00;39.85;33.55;60.86;;
68599;Laerm;18038;50.166;18.908;2022-11-23T13:24:29;39.10;33.51;46.41;;
68599;Laerm;18038;50.166;18.908;2022-11-23T13:27:44;40.44;33.64;59.34;;
68599;Laerm;18038;50.166;18.908;2022-11-23T13:31:20;40.01;33.57;48.78;;
68599;Laerm;18038;50.166;18.908;2022-11-23T13:34:46;39.77;33.50;52.95;;
68599;Laerm;18038;50.166;18.908;2022-11-23T13:38:22;39.52;33.32;51.58;;
68599;Laerm;18038;50.166;18.908;2022-11-23T13:41:58;40.63;34.11;55.85;;
68599;Laerm;18038;50.166;18.908;2022-11-23T13:45:23;39.52;34.19;46.30;;
68599;Laerm;18038;50.166;18.908;2022-11-23T13:48:30;38.19;33.28;45.53;;
68599;Laerm;18038;50.166;18.908;2022-11-23T13:52:29;39.64;34.16;48.42;;
68599;Laerm;18038;50.166;18.908;2022-11-23T13:55:39;39.65;34.02;46.17;;
68599;Laerm;18038;50.166;18.908;2022-11-23T13:58:52;39.59;33.96;46.47;;
68599;Laerm;18038;50.166;18.908;2022-11-23T14:02:26;39.37;33.56;49.13;;
68599;Laerm;18038;50.166;18.908;2022-11-23T14:05:54;39.60;34.01;52.58;;
68599;Laerm;18038;50.166;18.908;2022-11-23T14:09:18;39.41;33.37;48.01;;
68599;Laerm;18038;50.166;18.908;2022-11-23T14:12:36;39.79;33.79;49.58;;
68599;Laerm;18038;50.166;18.908;2022-11-23T14:15:58;39.26;33.62;47.12;;
68599;Laerm;18038;50.166;18.908;2022-11-23T14:19:22;39.99;34.15;52.42;;
68599;Laerm;18038;50.166;18.908;2022-11-23T14:22:54;38.89;33.80;46.08;;
68599;Laerm;18038;50.166;18.908;2022-11-23T14:26:29;40.08;33.77;55.70;;
68599;Laerm;18038;50.166;18.908;2022-11-23T14:30:13;39.60;33.66;48.19;;
68599;Laerm;18038;50.166;18.908;2022-11-23T14:33:38;39.72;33.90;47.22;;
68599;Laerm;18038;50.166;18.908;2022-11-23T14:36:57;39.19;33.65;45.30;;
68599;Laerm;18038;50.166;18.908;2022-11-23T14:40:28;39.37;34.02;52.61;;
68599;Laerm;18038;50.166;18.908;2022-11-23T14:43:41;39.13;33.64;47.22;;
68599;Laerm;18038;50.166;18.908;2022-11-23T14:47:01;39.46;33.66;45.34;;
68599;Laerm;18038;50.166;18.908;2022-11-23T14:50:23;38.66;33.68;48.44;;
68599;Laerm;18038;50.166;18.908;2022-11-23T14:53:35;39.90;33.90;54.52;;
68599;Laerm;18038;50.166;18.908;2022-11-23T14:56:52;41.11;33.03;53.48;;
68599;Laerm;18038;50.166;18.908;2022-11-23T15:00:24;39.56;33.19;51.76;;
68599;Laerm;18038;50.166;18.908;2022-11-23T15:03:31;38.97;33.77;47.58;;
68599;Laerm;18038;50.166;18.908;2022-11-23T15:07:00;38.30;33.27;49.44;;
68599;Laerm;18038;50.166;18.908;2022-11-23T15:10:28;39.05;33.59;48.31;;
68599;Laerm;18038;50.166;18.908;2022-11-23T15:13:44;38.50;33.63;45.38;;
68599;Laerm;18038;50.166;18.908;2022-11-23T15:16:52;38.72;34.05;54.43;;
68599;Laerm;18038;50.166;18.908;2022-11-23T15:20:02;38.78;34.19;45.28;;
68599;Laerm;18038;50.166;18.908;2022-11-23T15:23:20;39.00;33.88;47.50;;
68599;Laerm;18038;50.166;18.908;2022-11-23T15:26:30;37.75;33.43;45.37;;
68599;Laerm;18038;50.166;18.908;2022-11-23T15:29:54;38.75;33.58;49.43;;
68599;Laerm;18038;50.166;18.908;2022-11-23T15:33:09;38.57;33.38;47.99;;
68599;Laerm;18038;50.166;18.908;2022-11-23T15:36:23;37.82;34.01;45.69;;
68599;Laerm;18038;50.166;18.908;2022-11-23T15:39:31;37.93;33.62;53.24;;
68599;Laerm;18038;50.166;18.908;2022-11-23T15:42:37;38.08;33.38;45.47;;
68599;Laerm;18038;50.166;18.908;2022-11-23T15:46:02;39.13;33.81;48.31;;
68599;Laerm;18038;50.166;18.908;2022-11-23T15:49:15;38.50;33.80;48.95;;
68599;Laerm;18038;50.166;18.908;2022-11-23T15:52:23;38.55;33.63;45.52;;
68599;Laerm;18038;50.166;18.908;2022-11-23T15:55:32;39.30;34.14;48.03;;
68599;Laerm;18038;50.166;18.908;2022-11-23T15:58:49;38.50;33.83;46.74;;
68599;Laerm;18038;50.166;18.908;2022-11-23T16:01:58;39.34;33.80;48.61;;
68599;Laerm;18038;50.166;18.908;2022-11-23T16:05:16;38.24;33.29;45.21;;
68599;Laerm;18038;50.166;18.908;2022-11-23T16:08:24;38.61;33.72;44.48;;
68599;Laerm;18038;50.166;18.908;2022-11-23T16:11:34;38.78;33.44;49.10;;
68599;Laerm;18038;50.166;18.908;2022-11-23T16:14:40;39.65;34.51;47.70;;
68599;Laerm;18038;50.166;18.908;2022-11-23T16:17:47;38.26;33.59;45.68;;
68599;Laerm;18038;50.166;18.908;2022-11-23T16:21:00;38.11;33.19;45.56;;
68599;Laerm;18038;50.166;18.908;2022-11-23T16:24:20;37.99;33.37;44.90;;
68599;Laerm;18038;50.166;18.908;2022-11-23T16:27:27;38.30;33.38;46.08;;
68599;Laerm;18038;50.166;18.908;2022-11-23T16:30:38;39.13;33.39;47.21;;
68599;Laerm;18038;50.166;18.908;2022-11-23T16:33:44;38.21;33.47;47.64;;
68599;Laerm;18038;50.166;18.908;2022-11-23T16:36:55;37.73;33.23;47.13;;
68599;Laerm;18038;50.166;18.908;2022-11-23T16:40:01;37.79;33.62;45.49;;
68599;Laerm;18038;50.166;18.908;2022-11-23T16:43:10;41.57;34.74;50.77;;
68599;Laerm;18038;50.166;18.908;2022-11-23T16:46:16;40.28;33.36;50.91;;
68599;Laerm;18038;50.166;18.908;2022-11-23T16:49:23;37.89;33.67;44.42;;
68599;Laerm;18038;50.166;18.908;2022-11-23T16:52:32;37.53;33.14;43.88;;
68599;Laerm;18038;50.166;18.908;2022-11-23T16:55:42;37.46;33.30;44.00;;
68599;Laerm;18038;50.166;18.908;2022-11-23T16:58:50;37.32;33.24;46.68;;
68599;Laerm;18038;50.166;18.908;2022-11-23T17:01:58;37.79;33.46;45.78;;
68599;Laerm;18038;50.166;18.908;2022-11-23T17:05:12;38.66;33.34;51.51;;
68599;Laerm;18038;50.166;18.908;2022-11-23T17:08:22;38.42;33.38;49.67;;
68599;Laerm;18038;50.166;18.908;2022-11-23T17:11:28;38.04;33.54;48.19;;
68599;Laerm;18038;50.166;18.908;2022-11-23T17:14:37;42.78;33.28;64.02;;
68599;Laerm;18038;50.166;18.908;2022-11-23T17:17:47;38.78;33.36;60.96;;
68599;Laerm;18038;50.166;18.908;2022-11-23T17:20:54;38.14;33.57;45.89;;
68599;Laerm;18038;50.166;18.908;2022-11-23T17:24:04;37.03;33.26;44.46;;
68599;Laerm;18038;50.166;18.908;2022-11-23T17:27:16;37.50;33.46;48.20;;
68599;Laerm;18038;50.166;18.908;2022-11-23T17:30:23;38.32;33.29;48.06;;
68599;Laerm;18038;50.166;18.908;2022-11-23T17:33:30;37.56;33.25;46.65;;
68599;Laerm;18038;50.166;18.908;2022-11-23T17:36:37;37.61;32.65;50.17;;
68599;Laerm;18038;50.166;18.908;2022-11-23T17:39:48;38.06;33.28;45.09;;
68599;Laerm;18038;50.166;18.908;2022-11-23T17:42:55;37.72;33.19;44.44;;
68599;Laerm;18038;50.166;18.908;2022-11-23T17:46:03;37.48;33.06;47.26;;
68599;Laerm;18038;50.166;18.908;2022-11-23T17:49:13;36.64;33.22;44.67;;
68599;Laerm;18038;50.166;18.908;2022-11-23T17:52:22;37.50;33.48;48.77;;